createdAt,value
2023-03-29T06:44:32.308Z,3.40
2023-03-29T06:56:50.980Z,2.80
2023-03-29T06:59:22.638Z,4.50
2023-03-29T07:02:02.806Z,5.87
2023-03-29T07:04:47.405Z,4.77
2023-03-29T07:07:27.744Z,5.43
2023-03-29T07:10:13.326Z,2.80
2023-03-29T07:13:07.277Z,3.73
2023-03-29T07:15:37.025Z,5.23
2023-03-29T07:18:14.756Z,2.30
2023-03-29T07:20:43.055Z,3.23
2023-03-29T07:23:12.118Z,2.17
2023-03-29T07:25:40.928Z,5.70
2023-03-29T07:28:09.631Z,2.57
2023-03-29T07:30:38.430Z,2.37
2023-03-29T07:33:15.244Z,2.70
2023-03-29T07:36:03.440Z,1.63
2023-03-29T07:38:32.603Z,2.20
2023-03-29T07:41:25.679Z,3.63
2023-03-29T07:44:05.040Z,3.07
2023-03-29T07:47:04.469Z,3.00
2023-03-29T07:49:34.833Z,2.40
2023-03-29T07:52:03.716Z,3.07
2023-03-29T07:54:33.097Z,3.37
2023-03-29T07:57:20.938Z,3.30
2023-03-29T07:59:55.216Z,2.50
2023-03-29T08:02:29.136Z,2.90
2023-03-29T08:05:03.650Z,2.63
2023-03-29T08:07:32.112Z,2.63
2023-03-29T08:11:39.817Z,5.37
2023-03-29T08:14:16.225Z,3.70
2023-03-29T08:16:58.217Z,4.30
2023-03-29T08:19:28.136Z,3.43
2023-03-29T08:22:09.685Z,3.67
2023-03-29T08:25:32.773Z,2.40
2023-03-29T08:28:01.460Z,5.60
2023-03-29T08:30:37.358Z,2.70
2023-03-29T08:33:06.822Z,5.80
2023-03-29T08:35:37.178Z,5.50
2023-03-29T08:38:33.521Z,5.03
2023-03-29T08:41:02.056Z,3.40
2023-03-29T08:47:26.955Z,2.17
2023-03-29T08:49:57.988Z,5.03
2023-03-29T08:52:39.183Z,2.03
2023-03-29T08:55:33.270Z,3.93
2023-03-29T08:58:24.403Z,3.57
2023-03-29T09:00:56.742Z,2.07
2023-03-29T09:03:27.773Z,2.20
2023-03-29T09:06:05.053Z,2.83
2023-03-29T09:08:41.471Z,1.80
2023-03-29T09:11:29.270Z,6.00
2023-03-29T09:14:14.675Z,2.40
2023-03-29T09:16:52.293Z,1.63
2023-03-29T09:19:29.305Z,1.30
2023-03-29T09:22:08.451Z,2.10
2023-03-29T09:24:54.712Z,1.10
2023-03-29T09:27:32.342Z,2.00
2023-03-29T09:30:25.892Z,2.63
2023-03-29T09:33:14.264Z,2.10
2023-03-29T09:36:00.720Z,6.50
2023-03-29T09:38:32.125Z,3.50
2023-03-29T09:41:07.678Z,2.93
2023-03-29T09:43:42.529Z,1.77
2023-03-29T09:46:21.758Z,1.73
2023-03-29T09:48:51.838Z,1.30
2023-03-29T09:51:24.219Z,1.63
2023-03-29T09:53:52.571Z,1.33
2023-03-29T09:56:39.271Z,3.10
2023-03-29T09:59:13.950Z,1.00
2023-03-29T10:01:45.602Z,2.83
2023-03-29T10:04:16.803Z,4.07
2023-03-29T10:06:53.926Z,3.03
2023-03-29T10:09:25.235Z,3.23
2023-03-29T10:12:03.156Z,2.53
2023-03-29T10:14:38.161Z,1.67
2023-03-29T10:17:15.535Z,3.50
2023-03-29T10:19:51.337Z,1.80
2023-03-29T10:22:23.848Z,2.10
2023-03-29T10:24:53.871Z,2.30
2023-03-29T10:27:26.106Z,1.77
2023-03-29T10:29:56.966Z,4.40
2023-03-29T10:32:33.450Z,3.07
2023-03-29T10:35:10.633Z,2.43
2023-03-29T10:37:42.550Z,5.47
2023-03-29T10:40:23.054Z,2.67
2023-03-29T10:42:53.801Z,2.73
2023-03-29T10:45:29.495Z,1.57
2023-03-29T10:47:58.916Z,3.70
2023-03-29T10:50:34.166Z,2.70
2023-03-29T10:53:03.105Z,8.33
2023-03-29T10:55:41.759Z,1.40
2023-03-29T10:58:29.744Z,3.60
2023-03-29T11:01:00.136Z,1.53
2023-03-29T11:03:57.204Z,2.47
2023-03-29T11:06:33.600Z,2.50
2023-03-29T11:09:07.470Z,2.57
2023-03-29T11:11:56.219Z,4.70
2023-03-29T11:14:45.657Z,2.43
2023-03-29T11:17:29.694Z,2.03
2023-03-29T11:20:15.342Z,1.50
2023-03-29T11:22:53.236Z,6.43
2023-03-29T11:25:33.398Z,1.50
2023-03-29T11:28:11.964Z,4.33
2023-03-29T11:30:46.830Z,2.43
2023-03-29T11:33:48.809Z,8.97
2023-03-29T11:36:25.622Z,1.30
2023-03-29T11:39:05.564Z,2.03
2023-03-29T11:41:36.666Z,1.43
2023-03-29T11:44:10.354Z,1.50
2023-03-29T11:46:42.623Z,1.73
2023-03-29T11:49:19.971Z,2.50
2023-03-29T11:51:54.355Z,4.43
2023-03-29T11:54:27.646Z,3.23
2023-03-29T11:57:01.667Z,0.90
2023-03-29T11:59:37.314Z,3.03
2023-03-29T12:02:14.510Z,3.93
2023-03-29T12:04:50.577Z,4.17
2023-03-29T12:07:25.167Z,1.83
2023-03-29T12:09:59.562Z,3.73
2023-03-29T12:12:36.027Z,2.53
2023-03-29T12:15:10.774Z,6.63
2023-03-29T12:17:47.099Z,2.63
2023-03-29T12:20:23.342Z,1.23
2023-03-29T12:22:56.115Z,2.70
2023-03-29T12:25:29.528Z,3.80
2023-03-29T12:28:23.162Z,3.90
2023-03-29T12:31:00.317Z,2.47
2023-03-29T12:34:02.545Z,1.53
2023-03-29T12:37:17.613Z,1.70
2023-03-29T12:39:46.201Z,2.93
2023-03-29T12:42:33.103Z,2.70
2023-03-29T12:45:38.652Z,2.80
2023-03-29T12:48:07.609Z,1.87
2023-03-29T12:50:38.564Z,1.77
2023-03-29T12:53:22.087Z,2.10
2023-03-29T12:55:56.898Z,3.80
2023-03-29T12:58:42.691Z,1.57
2023-03-29T13:01:26.603Z,1.80
2023-03-29T13:04:14.320Z,2.50
2023-03-29T13:07:06.146Z,3.73
2023-03-29T13:09:51.066Z,2.80
2023-03-29T13:12:27.037Z,4.87
2023-03-29T13:15:33.383Z,11.30
2023-03-29T13:18:37.102Z,2.73
2023-03-29T13:21:16.980Z,4.03
2023-03-29T13:23:57.039Z,1.83
2023-03-29T13:26:56.494Z,2.23
2023-03-29T13:29:50.796Z,2.97
2023-03-29T13:32:50.366Z,1.80
2023-03-29T13:35:32.424Z,2.00
2023-03-29T13:38:14.366Z,3.27
2023-03-29T13:40:58.543Z,1.97
2023-03-29T13:43:35.529Z,1.43
2023-03-29T13:46:22.439Z,3.00
2023-03-29T13:49:00.234Z,1.40
2023-03-29T13:51:37.803Z,4.00
2023-03-29T13:54:17.409Z,1.83
2023-03-29T13:57:01.434Z,2.60
2023-03-29T13:59:39.247Z,3.27
2023-03-29T14:02:08.380Z,5.03
2023-03-29T14:04:44.400Z,1.80
2023-03-29T14:07:16.194Z,3.83
2023-03-29T14:09:48.049Z,1.90
2023-03-29T14:12:16.641Z,4.20
2023-03-29T14:14:57.727Z,2.07
2023-03-29T14:17:27.154Z,2.57
2023-03-29T14:19:59.106Z,3.87
2023-03-29T14:22:32.364Z,4.10
2023-03-29T14:25:06.713Z,3.70
2023-03-29T14:27:38.288Z,3.20
2023-03-29T14:30:27.301Z,3.83
2023-03-29T14:32:56.807Z,1.83
2023-03-29T14:35:33.069Z,1.47
2023-03-29T14:38:03.722Z,2.83
2023-03-29T14:40:32.629Z,1.53
2023-03-29T14:43:09.788Z,1.73
2023-03-29T14:45:40.216Z,3.03
2023-03-29T14:48:11.430Z,2.00
2023-03-29T14:50:40.048Z,1.83
2023-03-29T14:53:09.754Z,2.07
2023-03-29T14:55:41.860Z,1.33
2023-03-29T14:58:21.731Z,6.63
2023-03-29T15:00:53.624Z,2.00
2023-03-29T15:03:26.280Z,10.57
2023-03-29T15:05:59.328Z,2.27
2023-03-29T15:08:33.596Z,2.17
2023-03-29T15:11:02.817Z,2.83
2023-03-29T15:13:31.706Z,3.67
2023-03-29T15:16:05.836Z,2.40
2023-03-29T15:18:39.916Z,1.67
2023-03-29T15:21:10.186Z,1.73
2023-03-29T15:23:41.296Z,4.37
2023-03-29T15:26:16.381Z,2.40
2023-03-29T15:28:55.009Z,1.90
2023-03-29T15:31:28.400Z,2.20
2023-03-29T15:34:06.964Z,3.63
2023-03-29T15:36:42.487Z,2.33
2023-03-29T15:39:13.542Z,1.63
2023-03-29T15:41:42.077Z,3.10
2023-03-29T15:44:10.911Z,1.23
2023-03-29T15:46:40.600Z,1.73
2023-03-29T15:49:11.974Z,1.60
2023-03-29T15:51:41.312Z,1.23
2023-03-29T15:54:09.665Z,5.57
2023-03-29T15:56:48.036Z,3.80
2023-03-29T15:59:17.972Z,1.10
2023-03-29T16:01:47.851Z,2.80
2023-03-29T16:04:18.802Z,2.53
2023-03-29T16:06:49.542Z,1.40
2023-03-29T16:09:18.454Z,1.00
2023-03-29T16:11:47.636Z,3.00
2023-03-29T16:14:23.020Z,2.60
2023-03-29T16:16:53.074Z,1.63
2023-03-29T16:19:22.126Z,0.90
2023-03-29T16:21:51.041Z,2.00
2023-03-29T16:24:21.485Z,3.87
2023-03-29T16:26:51.317Z,3.67
2023-03-29T16:29:20.723Z,3.07
2023-03-29T16:31:52.795Z,0.80
2023-03-29T16:34:22.961Z,2.33
2023-03-29T16:36:52.941Z,3.80
2023-03-29T16:39:21.439Z,2.33
2023-03-29T16:41:50.417Z,1.50
2023-03-29T16:44:23.497Z,1.90
2023-03-29T16:46:57.337Z,2.50
2023-03-29T16:49:25.800Z,2.60
2023-03-29T16:51:54.011Z,1.60
2023-03-29T16:54:25.717Z,1.50
2023-03-29T16:56:54.182Z,1.40
2023-03-29T16:59:22.581Z,2.57
2023-03-29T17:01:50.968Z,3.13
2023-03-29T17:04:20.777Z,2.83
2023-03-29T17:06:49.007Z,3.27
2023-03-29T17:09:17.624Z,1.47
2023-03-29T17:11:46.422Z,2.13
2023-03-29T17:14:14.742Z,2.77
2023-03-29T17:16:42.941Z,4.90
2023-03-29T17:19:11.239Z,5.57
2023-03-29T17:21:41.092Z,9.43
2023-03-29T17:24:10.530Z,8.43
2023-03-29T17:26:39.110Z,6.17
2023-03-29T17:29:07.386Z,5.73
2023-03-29T17:31:36.641Z,4.23
2023-03-29T17:34:05.028Z,5.40
2023-03-29T17:36:33.650Z,1.37
2023-03-29T17:39:03.350Z,4.97
2023-03-29T17:41:31.576Z,2.77
2023-03-29T17:43:59.803Z,1.40
2023-03-29T17:46:28.155Z,1.83
2023-03-29T17:48:58.913Z,3.43
2023-03-29T17:51:27.466Z,4.00
2023-03-29T17:53:57.074Z,12.50
2023-03-29T17:56:27.327Z,9.27
2023-03-29T17:58:55.529Z,19.23
2023-03-29T18:01:23.877Z,31.13
2023-03-29T18:03:52.369Z,23.77
2023-03-29T18:06:20.966Z,13.50
2023-03-29T18:08:49.183Z,14.03
2023-03-29T18:11:22.355Z,22.13
2023-03-29T18:13:52.610Z,35.73
2023-03-29T18:16:21.970Z,32.43
2023-03-29T18:18:50.253Z,15.40
2023-03-29T18:21:18.718Z,12.57
2023-03-29T18:23:49.202Z,9.73
2023-03-29T18:26:18.618Z,4.53
2023-03-29T18:28:48.268Z,5.30
2023-03-29T18:31:19.626Z,11.13
2023-03-29T18:33:48.367Z,20.33
2023-03-29T18:36:16.907Z,9.63
2023-03-29T18:38:45.738Z,9.23
2023-03-29T18:41:14.956Z,3.07
2023-03-29T18:43:44.096Z,2.70
2023-03-29T18:46:12.457Z,3.20
2023-03-29T18:48:42.370Z,3.13
2023-03-29T18:51:13.354Z,4.03
2023-03-29T18:53:43.632Z,4.27
2023-03-29T18:56:11.958Z,4.20
2023-03-29T18:58:40.257Z,3.37
2023-03-29T19:01:09.623Z,4.70
2023-03-29T19:03:38.031Z,2.63
2023-03-29T19:06:08.983Z,4.13
2023-03-29T19:08:39.636Z,14.97
2023-03-29T19:11:11.440Z,5.67
2023-03-29T19:13:39.688Z,3.37
2023-03-29T19:16:08.515Z,2.97
2023-03-29T19:18:37.015Z,5.30
2023-03-29T19:21:06.933Z,3.03
2023-03-29T19:23:36.240Z,5.60
2023-03-29T19:26:06.371Z,3.60
2023-03-29T19:28:36.032Z,5.83
2023-03-29T19:31:05.385Z,8.67
2023-03-29T19:33:33.696Z,10.13
2023-03-29T19:36:02.365Z,9.90
2023-03-29T19:38:32.381Z,6.93
2023-03-29T19:41:00.611Z,12.63
2023-03-29T19:43:29.021Z,7.10
2023-03-29T19:45:57.413Z,6.93
2023-03-29T19:48:25.719Z,5.80
2023-03-29T19:50:54.064Z,6.10
2023-03-29T19:53:23.337Z,4.67
2023-03-29T19:55:53.256Z,4.17
2023-03-29T19:58:21.836Z,3.50
2023-03-29T20:00:51.053Z,6.33
2023-03-29T20:03:21.742Z,4.63
2023-03-29T20:05:50.094Z,4.97
2023-03-29T20:08:18.502Z,26.77
2023-03-29T20:10:46.686Z,36.00
2023-03-29T20:13:24.539Z,12.67
2023-03-29T20:16:00.270Z,2.63
2023-03-29T20:18:28.509Z,1.90
2023-03-29T20:20:56.977Z,6.70
2023-03-29T20:23:25.418Z,4.47
2023-03-29T20:25:53.711Z,4.10
2023-03-29T20:28:23.553Z,7.53
2023-03-29T20:30:51.872Z,14.80
2023-03-29T20:33:21.205Z,7.10
2023-03-29T20:35:50.086Z,5.70
2023-03-29T20:38:18.320Z,7.37
2023-03-29T20:40:46.534Z,5.87
2023-03-29T20:43:18.914Z,4.77
2023-03-29T20:45:53.594Z,8.30
2023-03-29T20:48:24.417Z,7.00
2023-03-29T20:50:52.713Z,10.77
2023-03-29T20:53:21.351Z,7.10
2023-03-29T20:55:49.521Z,12.00
2023-03-29T20:58:17.722Z,10.07
2023-03-29T21:00:46.735Z,11.87
2023-03-29T21:03:16.384Z,10.87
2023-03-29T21:05:44.700Z,8.13
2023-03-29T21:08:12.969Z,7.30
2023-03-29T21:10:42.398Z,9.13
2023-03-29T21:13:10.720Z,4.97
2023-03-29T21:15:40.493Z,5.20
2023-03-29T21:18:08.828Z,5.03
2023-03-29T21:20:39.216Z,3.23
2023-03-29T21:23:07.399Z,3.33
2023-03-29T21:25:35.582Z,5.93
2023-03-29T21:28:03.776Z,9.80
2023-03-29T21:30:32.331Z,4.10
2023-03-29T21:33:01.365Z,4.17
2023-03-29T21:35:33.192Z,4.33
2023-03-29T21:38:03.009Z,4.93
2023-03-29T21:40:31.288Z,5.40
2023-03-29T21:42:59.484Z,5.13
2023-03-29T21:45:27.605Z,5.50
2023-03-29T21:47:56.024Z,4.90
2023-03-29T21:50:24.326Z,3.30
2023-03-29T21:52:52.543Z,7.73
2023-03-29T21:55:22.241Z,6.37
2023-03-29T21:57:50.394Z,5.90
2023-03-29T22:00:19.072Z,4.27
2023-03-29T22:02:47.834Z,6.90
2023-03-29T22:05:16.306Z,8.13
2023-03-29T22:07:44.532Z,5.73
2023-03-29T22:10:13.865Z,3.60
2023-03-29T22:12:43.802Z,4.43
2023-03-29T22:15:12.900Z,5.50
2023-03-29T22:17:42.919Z,5.73
2023-03-29T22:20:13.767Z,3.50
2023-03-29T22:22:46.476Z,3.63
2023-03-29T22:25:14.825Z,5.43
2023-03-29T22:27:47.517Z,6.83
2023-03-29T22:30:16.986Z,6.70
2023-03-29T22:32:45.222Z,6.47
2023-03-29T22:35:13.520Z,10.40
2023-03-29T22:37:42.822Z,8.30
2023-03-29T22:40:13.288Z,5.80
2023-03-29T22:42:41.645Z,4.57
2023-03-29T22:45:12.244Z,5.17
2023-03-29T22:47:40.451Z,6.20
2023-03-29T22:50:10.142Z,5.20
2023-03-29T22:52:38.319Z,5.33
2023-03-29T22:55:07.760Z,5.90
2023-03-29T22:57:35.915Z,6.60
2023-03-29T23:00:08.930Z,5.07
2023-03-29T23:02:38.953Z,4.00
2023-03-29T23:05:09.351Z,6.30
2023-03-29T23:07:37.805Z,7.77
2023-03-29T23:10:07.729Z,6.63
2023-03-29T23:12:36.707Z,3.73
2023-03-29T23:15:07.932Z,6.57
2023-03-29T23:17:37.077Z,9.07
2023-03-29T23:20:10.864Z,4.70
2023-03-29T23:22:39.661Z,4.77
2023-03-29T23:25:09.148Z,3.67
2023-03-29T23:27:37.544Z,7.90
2023-03-29T23:30:09.651Z,4.63
2023-03-29T23:32:37.983Z,7.07
2023-03-29T23:35:08.689Z,4.40
2023-03-29T23:37:37.716Z,5.83
2023-03-29T23:40:10.247Z,4.77
2023-03-29T23:42:39.194Z,6.77
2023-03-29T23:45:10.112Z,4.63
2023-03-29T23:47:38.381Z,3.60
2023-03-29T23:50:10.028Z,4.30
2023-03-29T23:52:38.229Z,5.33
2023-03-29T23:55:07.495Z,3.70
2023-03-29T23:57:37.128Z,6.40
